Time;durP1;ratioP1;P1;durP2;ratioP2;P2;SDS_P1;SDS_P2;PMS_P1;PMS_P2;Temp;Humidity;BMP_temperature;BMP_pressure;BME280_temperature;BME280_humidity;BME280_pressure;Samples;Min_cycle;Max_cycle;Signal;HPM_P1;HPM_P2
2021/05/01 00:01:45;;;;;;;471.58;294.83;;;;;;;;;;5030485;28;20064;-85
2021/05/01 00:04:11;;;;;;;463.77;284.05;;;;;;;;;;5034250;28;20033;-85
2021/05/01 00:06:37;;;;;;;447.92;284.17;;;;;;;;;;5020558;28;20512;-84
2021/05/01 00:09:04;;;;;;;445.25;282.70;;;;;;;;;;5023022;28;20033;-85
2021/05/01 00:11:30;;;;;;;456.10;283.95;;;;;;;;;;5027134;28;20029;-85
2021/05/01 00:13:58;;;;;;;457.80;284.50;;;;;;;;;;5030504;28;20036;-85
2021/05/01 00:16:28;;;;;;;452.20;276.23;;;;;;;;;;5028625;28;20021;-85
2021/05/01 00:18:55;;;;;;;446.90;280.80;;;;;;;;;;5049168;28;20053;-85
2021/05/01 00:21:21;;;;;;;450.00;285.13;;;;;;;;;;5028182;28;20082;-85
2021/05/01 00:23:47;;;;;;;452.83;280.80;;;;;;;;;;5049107;28;20164;-85
2021/05/01 00:26:13;;;;;;;448.17;281.73;;;;;;;;;;5024927;28;20112;-85
2021/05/01 00:28:39;;;;;;;450.63;283.50;;;;;;;;;;5042425;28;20041;-85
2021/05/01 00:31:05;;;;;;;455.90;297.17;;;;;;;;;;5040624;28;20119;-85
2021/05/01 00:33:31;;;;;;;450.80;277.70;;;;;;;;;;5034981;28;20036;-86
2021/05/01 00:35:57;;;;;;;452.75;288.90;;;;;;;;;;5030671;28;20021;-85
2021/05/01 00:38:23;;;;;;;452.70;282.85;;;;;;;;;;5026871;28;20053;-85
2021/05/01 00:40:50;;;;;;;458.20;280.20;;;;;;;;;;5028661;28;20059;-86
2021/05/01 00:43:16;;;;;;;453.67;282.17;;;;;;;;;;5051173;28;20049;-84
2021/05/01 00:45:42;;;;;;;452.08;274.48;;;;;;;;;;5032121;28;20385;-86
2021/05/01 00:48:07;;;;;;;451.48;284.88;;;;;;;;;;5031716;28;20017;-85
2021/05/01 00:50:33;;;;;;;449.27;279.85;;;;;;;;;;5032024;28;20032;-85
2021/05/01 00:53:00;;;;;;;459.88;285.63;;;;;;;;;;5033628;28;20037;-86
2021/05/01 00:55:26;;;;;;;451.52;277.05;;;;;;;;;;5034368;28;20540;-86
2021/05/01 00:57:52;;;;;;;457.27;284.67;;;;;;;;;;5036215;28;20021;-85
2021/05/01 01:00:34;;;;;;;446.52;276.40;;;;;;;;;;5029263;28;20059;-85
2021/05/01 01:03:00;;;;;;;458.45;276.08;;;;;;;;;;5029471;28;20376;-85
2021/05/01 01:05:26;;;;;;;448.58;274.70;;;;;;;;;;5020467;28;20021;-86
2021/05/01 01:07:52;;;;;;;452.75;282.30;;;;;;;;;;5047134;28;20029;-85
2021/05/01 01:10:18;;;;;;;452.90;278.10;;;;;;;;;;5025925;28;20029;-85
2021/05/01 01:12:44;;;;;;;447.42;279.70;;;;;;;;;;5024196;28;20079;-86
2021/05/01 01:15:10;;;;;;;439.38;272.45;;;;;;;;;;5042794;28;20017;-86
2021/05/01 01:17:37;;;;;;;446.88;280.10;;;;;;;;;;5025161;28;20075;-85
2021/05/01 01:20:04;;;;;;;450.67;281.63;;;;;;;;;;5039671;28;20376;-85
2021/05/01 01:22:30;;;;;;;448.40;279.15;;;;;;;;;;5031643;28;20022;-85
2021/05/01 01:24:56;;;;;;;458.90;287.65;;;;;;;;;;5022914;28;20354;-85
2021/05/01 01:27:22;;;;;;;472.67;292.50;;;;;;;;;;5025143;28;20033;-85
2021/05/01 01:29:48;;;;;;;522.33;312.15;;;;;;;;;;5025259;28;20029;-85
2021/05/01 01:32:15;;;;;;;658.70;386.15;;;;;;;;;;5025455;28;20491;-85
2021/05/01 01:34:44;;;;;;;593.50;344.95;;;;;;;;;;5040484;28;20029;-85
2021/05/01 01:37:11;;;;;;;755.42;452.70;;;;;;;;;;5023725;28;20029;-85
2021/05/01 01:39:37;;;;;;;482.13;304.20;;;;;;;;;;5023585;28;20025;-85
2021/05/01 01:42:04;;;;;;;491.85;294.95;;;;;;;;;;5026440;28;20492;-85
2021/05/01 01:44:30;;;;;;;484.65;300.17;;;;;;;;;;5024095;28;20048;-85
2021/05/01 01:46:56;;;;;;;548.78;327.60;;;;;;;;;;5024275;28;20118;-85
2021/05/01 01:49:22;;;;;;;835.35;522.80;;;;;;;;;;5025732;28;20021;-85
2021/05/01 01:51:48;;;;;;;502.40;303.45;;;;;;;;;;5021705;28;20021;-85
2021/05/01 01:54:14;;;;;;;592.25;338.17;;;;;;;;;;5037160;28;20491;-85
2021/05/01 01:56:40;;;;;;;506.90;300.05;;;;;;;;;;5022243;28;20650;-85
2021/05/01 01:59:06;;;;;;;516.47;302.48;;;;;;;;;;5045988;28;20028;-85
2021/05/01 02:01:33;;;;;;;511.83;304.10;;;;;;;;;;5041526;28;20036;-85
2021/05/01 02:03:59;;;;;;;509.98;302.10;;;;;;;;;;5022690;28;20033;-86
2021/05/01 02:06:25;;;;;;;527.70;306.95;;;;;;;;;;5027653;28;20515;-85
2021/05/01 02:08:51;;;;;;;545.00;327.60;;;;;;;;;;5022738;28;20032;-86
2021/05/01 02:11:18;;;;;;;504.88;302.92;;;;;;;;;;5040003;28;20025;-84
2021/05/01 02:13:44;;;;;;;527.13;308.35;;;;;;;;;;5021124;28;20021;-85
2021/05/01 02:16:10;;;;;;;503.23;303.58;;;;;;;;;;5025510;28;20116;-84
2021/05/01 02:18:36;;;;;;;501.25;295.67;;;;;;;;;;5018396;28;20477;-84
2021/05/01 02:21:02;;;;;;;524.38;303.85;;;;;;;;;;5023514;28;20059;-85
2021/05/01 02:23:28;;;;;;;513.47;303.35;;;;;;;;;;5020758;28;20548;-85
2021/05/01 02:25:54;;;;;;;514.42;311.52;;;;;;;;;;5018649;28;20125;-85
2021/05/01 02:28:20;;;;;;;512.83;298.13;;;;;;;;;;5027063;28;20442;-85
2021/05/01 02:30:47;;;;;;;503.27;296.92;;;;;;;;;;5039977;28;20064;-85
2021/05/01 02:33:13;;;;;;;506.38;301.60;;;;;;;;;;5024033;28;20028;-85
2021/05/01 02:35:40;;;;;;;513.67;302.77;;;;;;;;;;5024774;28;20472;-85
2021/05/01 02:38:06;;;;;;;496.58;294.33;;;;;;;;;;5026214;28;20024;-84
2021/05/01 02:40:32;;;;;;;545.58;320.35;;;;;;;;;;5022983;28;20029;-85
2021/05/01 02:43:06;;;;;;;533.53;317.17;;;;;;;;;;5018725;28;20691;-85
2021/05/01 02:45:32;;;;;;;510.05;302.52;;;;;;;;;;5043453;28;20060;-85
2021/05/01 02:47:58;;;;;;;502.83;299.85;;;;;;;;;;5039455;28;20025;-84
2021/05/01 02:50:24;;;;;;;488.33;293.38;;;;;;;;;;5021719;28;20022;-84
2021/05/01 02:52:50;;;;;;;499.20;300.85;;;;;;;;;;5019178;28;20082;-85
2021/05/01 02:55:16;;;;;;;483.85;296.13;;;;;;;;;;5043130;28;20024;-84
2021/05/01 02:57:42;;;;;;;500.60;306.17;;;;;;;;;;5021321;28;20017;-83
2021/05/01 03:00:10;;;;;;;492.30;293.35;;;;;;;;;;5020080;28;20029;-84
2021/05/01 03:02:36;;;;;;;487.55;293.35;;;;;;;;;;5025982;28;20444;-84
2021/05/01 03:05:02;;;;;;;489.58;308.45;;;;;;;;;;5022140;28;20029;-84
2021/05/01 03:07:28;;;;;;;483.63;298.42;;;;;;;;;;5020984;28;20032;-84
2021/05/01 03:09:54;;;;;;;490.45;298.80;;;;;;;;;;5025200;28;20119;-85
2021/05/01 03:12:20;;;;;;;486.98;290.98;;;;;;;;;;5027037;28;20119;-85
2021/05/01 03:14:46;;;;;;;479.48;285.98;;;;;;;;;;5026070;28;20499;-85
2021/05/01 03:17:13;;;;;;;493.35;288.75;;;;;;;;;;5019174;28;20037;-84
2021/05/01 03:19:39;;;;;;;486.52;300.80;;;;;;;;;;5019449;28;20400;-84
2021/05/01 03:22:05;;;;;;;487.65;291.20;;;;;;;;;;5015912;28;20022;-84
2021/05/01 03:24:32;;;;;;;493.70;291.67;;;;;;;;;;5018131;28;20481;-84
2021/05/01 03:26:58;;;;;;;491.15;289.90;;;;;;;;;;5020348;28;20033;-85
2021/05/01 03:29:24;;;;;;;496.40;298.70;;;;;;;;;;5039856;28;20388;-84
2021/05/01 03:31:50;;;;;;;487.27;287.60;;;;;;;;;;5019467;28;20036;-84
2021/05/01 03:34:16;;;;;;;493.60;289.77;;;;;;;;;;5021531;28;20489;-84
2021/05/01 03:36:42;;;;;;;491.92;286.77;;;;;;;;;;5023253;28;20022;-84
2021/05/01 03:39:08;;;;;;;485.70;296.77;;;;;;;;;;5036780;28;20033;-84
2021/05/01 03:41:34;;;;;;;473.25;288.05;;;;;;;;;;5023405;28;20033;-84
2021/05/01 03:44:00;;;;;;;467.95;293.50;;;;;;;;;;5015301;28;20575;-84
2021/05/01 03:46:27;;;;;;;470.50;282.77;;;;;;;;;;5024027;28;20029;-85
2021/05/01 03:48:53;;;;;;;467.70;284.08;;;;;;;;;;5024078;28;20036;-85
2021/05/01 03:51:19;;;;;;;465.92;281.08;;;;;;;;;;5021045;28;20024;-84
2021/05/01 03:53:45;;;;;;;471.58;279.48;;;;;;;;;;5022895;28;20483;-84
2021/05/01 03:56:12;;;;;;;523.38;294.17;;;;;;;;;;5022643;28;20025;-83
2021/05/01 03:58:38;;;;;;;481.63;283.83;;;;;;;;;;5019678;28;20022;-84
2021/05/01 04:01:04;;;;;;;475.67;280.73;;;;;;;;;;5025240;28;20032;-84
2021/05/01 04:03:30;;;;;;;472.95;284.60;;;;;;;;;;5027539;28;20025;-84
2021/05/01 04:05:56;;;;;;;474.60;283.13;;;;;;;;;;5054761;28;20036;-84
2021/05/01 04:08:22;;;;;;;495.27;281.58;;;;;;;;;;5056062;28;20017;-84
2021/05/01 04:10:48;;;;;;;505.60;277.73;;;;;;;;;;5031892;28;20029;-84
2021/05/01 04:13:14;;;;;;;490.00;278.77;;;;;;;;;;5040118;28;20091;-84
2021/05/01 04:15:40;;;;;;;496.63;277.85;;;;;;;;;;5044108;28;20036;-84
2021/05/01 04:18:11;;;;;;;481.08;285.08;;;;;;;;;;5025318;28;20075;-84
2021/05/01 04:20:37;;;;;;;453.75;265.13;;;;;;;;;;5023154;28;20034;-84
2021/05/01 04:23:22;;;;;;;448.85;262.67;;;;;;;;;;5034334;28;20075;-83
2021/05/01 04:25:48;;;;;;;443.25;262.45;;;;;;;;;;5054656;28;20021;-83
2021/05/01 04:28:14;;;;;;;446.10;264.27;;;;;;;;;;5036085;28;20043;-84
2021/05/01 04:30:40;;;;;;;458.75;264.95;;;;;;;;;;5037375;28;20025;-83
2021/05/01 04:33:06;;;;;;;452.95;278.67;;;;;;;;;;5024764;28;20025;-84
2021/05/01 04:35:32;;;;;;;456.10;274.33;;;;;;;;;;5045701;28;20100;-84
2021/05/01 04:37:58;;;;;;;455.52;276.50;;;;;;;;;;5045041;28;20088;-84
2021/05/01 04:40:24;;;;;;;451.77;271.02;;;;;;;;;;5026297;28;20017;-84
2021/05/01 04:42:52;;;;;;;444.40;262.25;;;;;;;;;;5019761;28;20022;-84
2021/05/01 04:45:18;;;;;;;449.10;263.77;;;;;;;;;;5027420;28;20033;-84
2021/05/01 04:47:44;;;;;;;450.25;274.25;;;;;;;;;;5024801;28;20081;-84
2021/05/01 04:50:12;;;;;;;450.52;262.00;;;;;;;;;;5025482;28;20030;-84
2021/05/01 04:52:38;;;;;;;452.58;272.95;;;;;;;;;;5026779;28;20029;-83
2021/05/01 04:55:12;;;;;;;457.67;272.48;;;;;;;;;;5024347;28;20112;-83
2021/05/01 04:57:39;;;;;;;459.15;263.35;;;;;;;;;;5025653;28;20397;-83
2021/05/01 05:00:05;;;;;;;453.17;263.92;;;;;;;;;;5027729;28;20052;-84
2021/05/01 05:02:31;;;;;;;462.27;271.90;;;;;;;;;;5031428;28;20032;-83
2021/05/01 05:04:57;;;;;;;457.95;270.60;;;;;;;;;;5030371;28;20506;-83
2021/05/01 05:07:23;;;;;;;465.35;278.63;;;;;;;;;;5024979;28;20090;-83
2021/05/01 05:09:49;;;;;;;467.40;274.85;;;;;;;;;;5026168;28;20041;-83
2021/05/01 05:12:15;;;;;;;464.23;277.02;;;;;;;;;;5051296;28;20047;-83
2021/05/01 05:14:41;;;;;;;452.92;265.63;;;;;;;;;;5033397;28;20016;-84
2021/05/01 05:17:07;;;;;;;456.80;276.55;;;;;;;;;;5030543;28;20022;-83
2021/05/01 05:19:33;;;;;;;463.23;277.17;;;;;;;;;;5024347;28;20021;-83
2021/05/01 05:21:59;;;;;;;459.48;270.40;;;;;;;;;;5026146;28;20486;-85
2021/05/01 05:24:25;;;;;;;454.50;270.40;;;;;;;;;;5038623;28;20032;-84
2021/05/01 05:26:51;;;;;;;469.50;276.45;;;;;;;;;;5026914;28;20384;-83
2021/05/01 05:29:17;;;;;;;451.30;267.08;;;;;;;;;;5022561;28;20025;-84
2021/05/01 05:31:44;;;;;;;457.23;273.60;;;;;;;;;;5027610;28;20032;-84
2021/05/01 05:34:10;;;;;;;457.17;270.10;;;;;;;;;;5031235;28;20017;-83
2021/05/01 05:36:36;;;;;;;451.60;272.60;;;;;;;;;;5043612;28;20029;-83
2021/05/01 05:39:02;;;;;;;448.45;262.70;;;;;;;;;;5036856;28;20021;-83
2021/05/01 05:41:29;;;;;;;459.60;279.52;;;;;;;;;;5036468;28;20040;-84
2021/05/01 05:43:55;;;;;;;448.50;270.45;;;;;;;;;;5036162;28;20053;-84
2021/05/01 05:46:21;;;;;;;458.02;277.00;;;;;;;;;;5036988;28;20025;-85
2021/05/01 05:48:47;;;;;;;453.73;266.27;;;;;;;;;;5034421;28;20146;-84
2021/05/01 05:51:13;;;;;;;454.55;271.20;;;;;;;;;;5053998;28;20052;-84
2021/05/01 05:54:10;;;;;;;453.20;277.33;;;;;;;;;;5035306;28;20037;-84
2021/05/01 05:56:36;;;;;;;454.85;268.88;;;;;;;;;;5035945;28;20025;-84
2021/05/01 05:59:02;;;;;;;448.23;276.58;;;;;;;;;;5054608;28;20025;-83
2021/05/01 06:01:31;;;;;;;457.00;275.67;;;;;;;;;;5031627;28;20029;-84
2021/05/01 06:03:58;;;;;;;456.17;272.92;;;;;;;;;;5030548;28;20049;-83
2021/05/01 06:06:25;;;;;;;454.08;279.70;;;;;;;;;;5039847;28;20033;-84
2021/05/01 06:08:51;;;;;;;462.83;281.20;;;;;;;;;;5021232;28;20120;-84
2021/05/01 06:11:18;;;;;;;453.45;276.20;;;;;;;;;;5026356;28;20029;-82
2021/05/01 06:13:45;;;;;;;454.65;273.80;;;;;;;;;;5053811;28;20021;-82
2021/05/01 06:16:12;;;;;;;456.42;283.15;;;;;;;;;;5034911;28;20017;-83
2021/05/01 06:18:39;;;;;;;448.75;270.90;;;;;;;;;;5036355;28;20120;-83
2021/05/01 06:21:05;;;;;;;483.55;282.73;;;;;;;;;;5032137;28;20025;-82
2021/05/01 06:23:31;;;;;;;487.30;296.40;;;;;;;;;;5034590;28;20036;-81
2021/05/01 06:25:57;;;;;;;482.50;298.10;;;;;;;;;;5052097;28;20668;-82
2021/05/01 06:28:23;;;;;;;475.80;285.08;;;;;;;;;;5034850;28;20111;-81
2021/05/01 06:30:50;;;;;;;474.70;280.83;;;;;;;;;;5034804;28;20115;-81
2021/05/01 06:33:16;;;;;;;467.55;286.85;;;;;;;;;;5034446;28;20051;-84
2021/05/01 06:35:44;;;;;;;462.38;283.98;;;;;;;;;;5036034;28;20049;-81
2021/05/01 06:38:10;;;;;;;460.85;283.52;;;;;;;;;;5033230;28;20048;-81
2021/05/01 06:40:44;;;;;;;463.73;285.98;;;;;;;;;;5025614;28;20024;-83
2021/05/01 06:43:29;;;;;;;455.50;280.92;;;;;;;;;;5033680;28;20048;-83
2021/05/01 06:45:55;;;;;;;453.55;278.38;;;;;;;;;;5041515;28;20025;-81
2021/05/01 06:48:26;;;;;;;458.63;281.83;;;;;;;;;;5025156;28;20115;-81
2021/05/01 06:50:54;;;;;;;463.65;286.65;;;;;;;;;;5033134;28;20099;-82
2021/05/01 06:53:30;;;;;;;461.25;285.55;;;;;;;;;;5049874;28;20029;-84
2021/05/01 06:56:01;;;;;;;458.20;285.02;;;;;;;;;;5026195;28;20033;-87
2021/05/01 06:58:28;;;;;;;459.88;285.00;;;;;;;;;;5033218;28;20531;-82
2021/05/01 07:00:55;;;;;;;458.75;292.90;;;;;;;;;;5052030;28;20055;-86
2021/05/01 07:03:22;;;;;;;465.58;290.08;;;;;;;;;;5031749;28;20021;-85
2021/05/01 07:05:49;;;;;;;452.77;285.15;;;;;;;;;;5033919;28;20047;-83
2021/05/01 07:08:15;;;;;;;456.67;286.48;;;;;;;;;;5048673;28;20480;-85
2021/05/01 07:10:41;;;;;;;452.70;281.48;;;;;;;;;;5034803;28;20731;-86
2021/05/01 07:13:44;;;;;;;459.88;284.92;;;;;;;;;;5032779;28;20029;-85
2021/05/01 07:16:12;;;;;;;454.63;289.17;;;;;;;;;;5029976;28;20453;-84
2021/05/01 07:18:38;;;;;;;453.95;289.02;;;;;;;;;;5026168;28;20480;-84
2021/05/01 07:21:06;;;;;;;449.05;282.35;;;;;;;;;;5044233;28;20090;-86
2021/05/01 07:23:32;;;;;;;454.88;292.42;;;;;;;;;;5036416;28;20041;-86
2021/05/01 07:25:58;;;;;;;454.45;286.10;;;;;;;;;;5031938;28;20025;-86
2021/05/01 07:28:26;;;;;;;456.75;287.58;;;;;;;;;;5030352;28;20021;-87
2021/05/01 07:30:55;;;;;;;460.60;300.50;;;;;;;;;;5029203;28;20059;-84
2021/05/01 07:33:30;;;;;;;457.67;291.35;;;;;;;;;;5025174;28;20374;-88
2021/05/01 07:35:58;;;;;;;442.02;280.20;;;;;;;;;;5020648;28;20037;-86
2021/05/01 07:38:25;;;;;;;460.95;296.92;;;;;;;;;;5025248;28;20310;-87
2021/05/01 07:40:52;;;;;;;461.27;293.55;;;;;;;;;;5028134;28;20033;-88
2021/05/01 07:43:18;;;;;;;460.73;290.48;;;;;;;;;;5025934;28;20461;-87
2021/05/01 07:45:47;;;;;;;457.17;298.52;;;;;;;;;;5046722;28;20021;-89
2021/05/01 07:48:15;;;;;;;458.33;297.98;;;;;;;;;;5033529;28;20041;-86
2021/05/01 07:50:41;;;;;;;454.02;292.10;;;;;;;;;;5033183;28;20384;-88
2021/05/01 07:53:07;;;;;;;455.58;300.98;;;;;;;;;;5051131;28;20082;-88
2021/05/01 07:55:33;;;;;;;456.27;303.10;;;;;;;;;;5029852;28;20026;-84
2021/05/01 07:57:59;;;;;;;456.35;297.45;;;;;;;;;;5034631;28;20036;-87
2021/05/01 08:00:25;;;;;;;458.90;298.77;;;;;;;;;;5033261;28;20472;-86
2021/05/01 08:02:51;;;;;;;457.13;299.80;;;;;;;;;;5021749;28;20030;-86
2021/05/01 08:05:21;;;;;;;452.58;291.45;;;;;;;;;;5027753;28;20635;-88
2021/05/01 08:07:48;;;;;;;454.45;292.08;;;;;;;;;;5031516;28;20033;-88
2021/05/01 08:10:14;;;;;;;457.20;302.88;;;;;;;;;;5045929;28;20385;-86
2021/05/01 08:12:41;;;;;;;461.02;307.42;;;;;;;;;;5024459;28;20090;-83
2021/05/01 08:15:08;;;;;;;461.67;306.23;;;;;;;;;;5034527;28;20036;-85
2021/05/01 08:17:34;;;;;;;458.27;295.58;;;;;;;;;;5033043;28;20021;-82
2021/05/01 08:20:00;;;;;;;454.85;302.55;;;;;;;;;;5034925;28;20107;-85
2021/05/01 08:22:27;;;;;;;460.45;303.98;;;;;;;;;;5035271;28;20067;-85
2021/05/01 08:24:53;;;;;;;449.77;304.45;;;;;;;;;;5025166;28;20032;-88
2021/05/01 08:27:19;;;;;;;461.23;311.50;;;;;;;;;;5046237;28;20037;-84
2021/05/01 08:29:45;;;;;;;460.90;309.58;;;;;;;;;;5028898;28;20534;-88
2021/05/01 08:32:11;;;;;;;456.95;308.48;;;;;;;;;;5031783;28;20063;-85
2021/05/01 08:34:37;;;;;;;464.98;316.77;;;;;;;;;;5044302;28;20474;-83
2021/05/01 08:37:03;;;;;;;458.27;314.23;;;;;;;;;;5044096;28;21562;-87
2021/05/01 08:39:29;;;;;;;461.90;317.23;;;;;;;;;;5032718;28;20079;-84
2021/05/01 08:41:55;;;;;;;457.55;319.30;;;;;;;;;;5037760;28;20036;-84
2021/05/01 08:44:21;;;;;;;466.50;333.30;;;;;;;;;;5030828;28;20045;-84
2021/05/01 08:46:48;;;;;;;469.67;341.05;;;;;;;;;;5032983;28;20033;-84
2021/05/01 08:49:15;;;;;;;478.02;362.50;;;;;;;;;;5044305;28;20025;-81
2021/05/01 08:51:43;;;;;;;481.40;373.60;;;;;;;;;;5035007;28;20108;-86
2021/05/01 08:54:13;;;;;;;479.23;382.77;;;;;;;;;;5046111;28;20486;-87
2021/05/01 08:56:39;;;;;;;480.92;387.90;;;;;;;;;;5037786;28;20657;-79
2021/05/01 08:59:06;;;;;;;484.85;394.45;;;;;;;;;;5036926;28;20036;-79
2021/05/01 09:01:32;;;;;;;484.77;403.08;;;;;;;;;;5037718;28;20025;-79
2021/05/01 09:03:59;;;;;;;493.65;408.42;;;;;;;;;;5036852;28;20028;-80
2021/05/01 09:06:25;;;;;;;481.27;391.38;;;;;;;;;;5033478;28;20028;-82
2021/05/01 09:08:58;;;;;;;478.55;385.65;;;;;;;;;;5025370;28;20034;-80
2021/05/01 09:11:35;;;;;;;475.90;374.20;;;;;;;;;;5033127;28;20036;-81
2021/05/01 09:14:11;;;;;;;478.02;369.40;;;;;;;;;;5017008;28;20018;-80
2021/05/01 09:16:37;;;;;;;479.13;361.98;;;;;;;;;;5053135;28;20040;-81
2021/05/01 09:19:06;;;;;;;490.88;388.65;;;;;;;;;;5037302;28;20029;-78
2021/05/01 09:21:32;;;;;;;506.55;424.38;;;;;;;;;;5036848;28;20029;-78
2021/05/01 09:23:59;;;;;;;511.80;455.00;;;;;;;;;;5052953;28;20040;-78
2021/05/01 09:26:41;;;;;;;541.30;484.55;;;;;;;;;;5036911;28;20025;-80
2021/05/01 09:29:08;;;;;;;547.88;490.90;;;;;;;;;;5052740;28;20040;-78
2021/05/01 09:31:41;;;;;;;552.95;496.60;;;;;;;;;;5029407;28;20440;-78
2021/05/01 09:34:07;;;;;;;551.65;495.17;;;;;;;;;;5019608;28;20415;-79
2021/05/01 09:36:33;;;;;;;536.45;480.58;;;;;;;;;;5036486;28;20532;-78
2021/05/01 09:39:00;;;;;;;528.15;471.58;;;;;;;;;;5033836;28;20031;-77
2021/05/01 09:41:27;;;;;;;507.00;451.35;;;;;;;;;;5033101;28;20024;-79
2021/05/01 09:43:57;;;;;;;496.73;436.50;;;;;;;;;;5034605;28;20045;-78
2021/05/01 09:46:24;;;;;;;499.77;426.13;;;;;;;;;;5032358;28;20022;-79
2021/05/01 09:49:22;;;;;;;492.58;406.98;;;;;;;;;;5054339;28;20025;-79
2021/05/01 09:51:53;;;;;;;491.92;402.15;;;;;;;;;;5014583;28;20067;-77
2021/05/01 09:54:26;;;;;;;491.67;396.98;;;;;;;;;;5024589;28;20021;-77
2021/05/01 09:56:53;;;;;;;487.75;379.17;;;;;;;;;;5030375;28;20429;-79
2021/05/01 09:59:19;;;;;;;489.48;378.63;;;;;;;;;;5023977;28;20029;-82
2021/05/01 10:02:00;;;;;;;487.50;367.08;;;;;;;;;;5049652;28;20033;-82
2021/05/01 10:04:27;;;;;;;494.63;364.58;;;;;;;;;;5031893;28;20036;-81
2021/05/01 10:06:57;;;;;;;489.17;355.20;;;;;;;;;;5031824;28;20055;-82
2021/05/01 10:09:25;;;;;;;506.00;359.80;;;;;;;;;;5031929;28;20022;-81
2021/05/01 10:12:06;;;;;;;504.33;361.90;;;;;;;;;;5016129;28;20552;-82
2021/05/01 10:14:37;;;;;;;500.55;357.13;;;;;;;;;;5035824;28;20026;-81
2021/05/01 10:17:03;;;;;;;496.90;344.40;;;;;;;;;;5035151;28;20036;-80
2021/05/01 10:19:45;;;;;;;497.25;345.70;;;;;;;;;;5033878;28;20136;-81
2021/05/01 10:22:24;;;;;;;484.58;334.77;;;;;;;;;;5035803;28;20029;-81
2021/05/01 10:24:51;;;;;;;491.58;336.65;;;;;;;;;;5052111;28;20522;-81
2021/05/01 10:27:19;;;;;;;488.33;337.90;;;;;;;;;;5036191;28;20029;-81
2021/05/01 10:29:45;;;;;;;486.50;337.52;;;;;;;;;;5026384;28;20029;-81
2021/05/01 10:32:29;;;;;;;491.45;342.70;;;;;;;;;;5033656;28;20477;-82
2021/05/01 10:34:57;;;;;;;486.60;332.98;;;;;;;;;;5046754;28;20040;-82
2021/05/01 10:37:24;;;;;;;496.42;347.75;;;;;;;;;;5052614;28;20025;-81
2021/05/01 10:39:55;;;;;;;476.73;328.13;;;;;;;;;;5050796;28;20051;-82
2021/05/01 10:42:21;;;;;;;487.02;331.33;;;;;;;;;;5035048;28;20068;-80
2021/05/01 10:45:06;;;;;;;478.90;328.38;;;;;;;;;;5035329;28;20072;-81
2021/05/01 10:47:32;;;;;;;480.67;333.38;;;;;;;;;;5045409;28;20380;-81
2021/05/01 10:50:01;;;;;;;492.23;339.98;;;;;;;;;;5030978;28;20117;-81
2021/05/01 10:52:27;;;;;;;487.67;343.38;;;;;;;;;;5032444;28;20026;-81
2021/05/01 10:54:56;;;;;;;485.85;348.60;;;;;;;;;;5048531;28;20075;-81
2021/05/01 10:57:22;;;;;;;489.05;355.60;;;;;;;;;;5025210;28;20485;-83
2021/05/01 10:59:57;;;;;;;495.80;367.77;;;;;;;;;;5043637;28;20112;-80
2021/05/01 11:02:31;;;;;;;502.13;391.70;;;;;;;;;;5025733;28;20115;-79
2021/05/01 11:04:59;;;;;;;522.65;419.27;;;;;;;;;;5034887;28;20424;-82
2021/05/01 11:07:41;;;;;;;499.77;412.90;;;;;;;;;;5017393;28;20029;-80
2021/05/01 11:10:09;;;;;;;507.58;433.58;;;;;;;;;;5043801;28;20635;-79
2021/05/01 11:12:39;;;;;;;512.00;454.42;;;;;;;;;;5052020;28;20032;-79
2021/05/01 11:15:10;;;;;;;529.30;471.65;;;;;;;;;;5031344;28;20025;-78
2021/05/01 11:17:36;;;;;;;538.72;480.95;;;;;;;;;;5031545;28;20428;-79
2021/05/01 11:20:07;;;;;;;535.47;478.85;;;;;;;;;;5034308;28;20028;-79
2021/05/01 11:22:34;;;;;;;548.45;491.20;;;;;;;;;;5053253;28;20029;-77
2021/05/01 11:25:03;;;;;;;549.65;492.30;;;;;;;;;;5029918;28;20025;-79
2021/05/01 11:27:29;;;;;;;545.63;488.92;;;;;;;;;;5029781;28;20494;-78
2021/05/01 11:29:55;;;;;;;555.50;498.08;;;;;;;;;;5032880;28;20032;-79
2021/05/01 11:32:21;;;;;;;569.63;511.23;;;;;;;;;;5053222;28;20578;-84
2021/05/01 11:34:52;;;;;;;556.13;498.77;;;;;;;;;;5025159;28;20021;-78
2021/05/01 11:37:18;;;;;;;544.45;487.13;;;;;;;;;;5052673;28;20029;-79
2021/05/01 11:39:46;;;;;;;534.25;477.00;;;;;;;;;;5033478;28;20685;-78
2021/05/01 11:42:15;;;;;;;528.95;472.15;;;;;;;;;;5015270;28;20034;-80
2021/05/01 11:44:43;;;;;;;514.38;458.00;;;;;;;;;;5015203;28;20723;-79
2021/05/01 11:47:10;;;;;;;509.05;445.52;;;;;;;;;;5031801;28;20033;-78
2021/05/01 11:49:41;;;;;;;503.42;436.52;;;;;;;;;;5034511;28;20087;-79
2021/05/01 11:52:13;;;;;;;510.50;433.42;;;;;;;;;;5033479;28;20116;-81
2021/05/01 11:54:51;;;;;;;500.73;416.23;;;;;;;;;;5030629;28;20031;-78
2021/05/01 11:57:23;;;;;;;502.80;415.08;;;;;;;;;;5047566;28;20021;-80
2021/05/01 11:59:49;;;;;;;505.63;421.65;;;;;;;;;;5034943;28;20112;-80
2021/05/01 12:02:16;;;;;;;506.17;430.02;;;;;;;;;;5052714;28;20033;-84
2021/05/01 12:04:47;;;;;;;502.92;429.17;;;;;;;;;;5034106;28;20504;-80
2021/05/01 12:07:30;;;;;;;499.67;420.10;;;;;;;;;;5033009;28;20036;-82
2021/05/01 12:10:01;;;;;;;509.27;436.10;;;;;;;;;;5026682;28;20025;-79
2021/05/01 12:12:28;;;;;;;507.45;446.90;;;;;;;;;;5032068;28;20112;-80
2021/05/01 12:15:00;;;;;;;529.22;472.58;;;;;;;;;;5034755;28;20025;-81
2021/05/01 12:17:30;;;;;;;556.83;499.20;;;;;;;;;;5030614;28;20028;-79
2021/05/01 12:20:07;;;;;;;543.13;486.50;;;;;;;;;;5019720;28;20021;-78
2021/05/01 12:22:36;;;;;;;524.53;468.45;;;;;;;;;;5015971;28;20038;-83
2021/05/01 12:25:22;;;;;;;532.38;474.40;;;;;;;;;;5031607;28;20124;-77
2021/05/01 12:27:49;;;;;;;514.88;450.95;;;;;;;;;;5018972;28;20052;-78
2021/05/01 12:30:34;;;;;;;513.67;424.27;;;;;;;;;;5018443;28;20033;-82
2021/05/01 12:33:20;;;;;;;506.95;413.55;;;;;;;;;;5022140;28;20032;-82
2021/05/01 12:35:46;;;;;;;511.42;411.23;;;;;;;;;;5037959;28;20027;-81
2021/05/01 12:38:13;;;;;;;509.98;401.85;;;;;;;;;;5038190;28;20032;-83
2021/05/01 12:40:39;;;;;;;510.92;394.02;;;;;;;;;;5055313;28;20020;-80
2021/05/01 12:43:24;;;;;;;503.17;386.23;;;;;;;;;;5038410;28;20095;-82
2021/05/01 12:45:50;;;;;;;505.60;382.70;;;;;;;;;;5041174;28;20055;-83
2021/05/01 12:48:35;;;;;;;514.28;391.77;;;;;;;;;;5034527;28;20484;-81
2021/05/01 12:51:37;;;;;;;509.27;386.75;;;;;;;;;;5037987;28;20036;-81
2021/05/01 12:54:21;;;;;;;509.05;379.67;;;;;;;;;;4937978;29;20031;-81
2021/05/01 12:56:50;;;;;;;517.70;395.65;;;;;;;;;;5048807;28;20393;-82
2021/05/01 12:59:19;;;;;;;506.02;387.30;;;;;;;;;;5038179;28;20053;-85
2021/05/01 13:01:46;;;;;;;510.65;391.25;;;;;;;;;;5038471;28;20090;-84
2021/05/01 13:04:19;;;;;;;503.55;394.27;;;;;;;;;;5038261;28;20029;-83
2021/05/01 13:06:46;;;;;;;511.65;413.08;;;;;;;;;;5047244;28;20021;-85
2021/05/01 13:09:13;;;;;;;513.63;429.85;;;;;;;;;;5038726;28;20029;-82
2021/05/01 13:11:39;;;;;;;527.85;447.02;;;;;;;;;;5037649;28;20091;-82
2021/05/01 13:14:15;;;;;;;517.22;433.90;;;;;;;;;;5055203;28;20028;-85
2021/05/01 13:17:02;;;;;;;510.42;428.70;;;;;;;;;;5028968;28;20071;-85
2021/05/01 13:19:45;;;;;;;510.73;438.67;;;;;;;;;;5019855;28;20029;-81
2021/05/01 13:22:15;;;;;;;513.92;448.15;;;;;;;;;;5055448;28;20028;-86
2021/05/01 13:24:41;;;;;;;528.40;470.75;;;;;;;;;;5036133;28;20095;-84
2021/05/01 13:27:10;;;;;;;528.97;471.42;;;;;;;;;;5037242;28;20055;-86
2021/05/01 13:29:37;;;;;;;527.83;470.25;;;;;;;;;;5035412;28;20064;-81
2021/05/01 13:32:03;;;;;;;521.70;464.60;;;;;;;;;;5036744;28;20032;-80
2021/05/01 13:34:29;;;;;;;514.58;456.30;;;;;;;;;;5033758;28;20079;-82
2021/05/01 13:36:55;;;;;;;515.88;455.35;;;;;;;;;;5037046;28;20472;-82
2021/05/01 13:39:22;;;;;;;511.60;444.35;;;;;;;;;;5034836;28;20021;-81
2021/05/01 13:42:08;;;;;;;511.70;434.40;;;;;;;;;;5027349;28;20064;-83
2021/05/01 13:44:46;;;;;;;509.38;422.33;;;;;;;;;;5048212;28;20119;-80
2021/05/01 13:47:31;;;;;;;511.13;424.45;;;;;;;;;;5024202;28;20112;-82
2021/05/01 13:50:00;;;;;;;513.35;437.58;;;;;;;;;;5037296;28;20025;-78
2021/05/01 13:52:30;;;;;;;512.53;445.48;;;;;;;;;;5054368;28;20029;-81
2021/05/01 13:55:15;;;;;;;509.13;443.83;;;;;;;;;;5027178;28;20025;-83
2021/05/01 13:57:41;;;;;;;509.88;446.98;;;;;;;;;;5036542;28;20053;-81
2021/05/01 14:00:10;;;;;;;511.13;444.38;;;;;;;;;;5051033;28;20033;-82